Time,TemperatureF,DewpointF,PressureIn,WindDirection,WindDirectionDegrees,WindSpeedMPH,WindSpeedGustMPH,Humidity,HourlyPrecipIn,Conditions,Clouds,dailyrainin,SolarRadiationWatts/m^2,SoftwareType,DateUTC
2013-10-09 00:24:00,63.0,43.0,-100.00,South,185,7.0,19.0,48,0.00,,,0.00,0.000000,,2013-10-09 04:24:00,
2013-10-09 00:34:00,63.0,43.0,-100.00,South,185,7.0,19.0,48,0.00,,,0.00,0.000000,,2013-10-09 04:34:00,
2013-10-09 00:44:00,63.0,43.0,-100.00,South,185,7.0,19.0,48,0.00,,,0.00,0.000000,,2013-10-09 04:44:00,
2013-10-09 00:54:00,63.0,43.0,-100.00,South,185,7.0,19.0,48,0.00,,,0.00,0.000000,,2013-10-09 04:54:00,
2013-10-09 01:22:00,63.0,42.0,-100.00,South,189,9.0,16.0,47,0.00,,,0.00,0.000000,,2013-10-09 05:22:00,
2013-10-09 01:34:00,63.0,42.0,-100.00,South,189,9.0,16.0,47,0.00,,,0.00,0.000000,,2013-10-09 05:34:00,
2013-10-09 01:42:00,63.0,42.0,-100.00,South,189,9.0,16.0,47,0.00,,,0.00,0.000000,,2013-10-09 05:42:00,
2013-10-09 01:52:00,63.0,42.0,-100.00,South,189,9.0,16.0,47,0.00,,,0.00,0.000000,,2013-10-09 05:52:00,
2013-10-09 02:22:00,62.0,42.0,-100.00,SSW,202,6.0,17.0,47,0.00,,,0.00,0.000000,,2013-10-09 06:22:00,
2013-10-09 02:33:00,62.0,42.0,-100.00,SSW,202,6.0,17.0,47,0.00,,,0.00,0.000000,,2013-10-09 06:33:00,
2013-10-09 02:42:00,62.0,42.0,-100.00,SSW,202,6.0,17.0,47,0.00,,,0.00,0.000000,,2013-10-09 06:42:00,
2013-10-09 02:52:00,62.0,42.0,-100.00,SSW,202,6.0,17.0,47,0.00,,,0.00,0.000000,,2013-10-09 06:52:00,
2013-10-09 03:22:00,61.0,42.0,-100.00,South,188,6.0,14.0,50,0.00,,,0.00,0.000000,,2013-10-09 07:22:00,
2013-10-09 03:32:00,61.0,42.0,-100.00,South,188,6.0,14.0,50,0.00,,,0.00,0.000000,,2013-10-09 07:32:00,
2013-10-09 03:42:00,61.0,42.0,-100.00,South,188,6.0,14.0,50,0.00,,,0.00,0.000000,,2013-10-09 07:42:00,
2013-10-09 03:52:00,61.0,42.0,-100.00,South,188,6.0,14.0,50,0.00,,,0.00,0.000000,,2013-10-09 07:52:00,
2013-10-09 04:23:00,59.0,41.0,-100.00,SSW,202,4.0,14.0,52,0.00,,,0.00,0.000000,,2013-10-09 08:23:00,
2013-10-09 04:32:00,59.0,41.0,-100.00,SSW,202,4.0,14.0,52,0.00,,,0.00,0.000000,,2013-10-09 08:32:00,
2013-10-09 04:42:00,59.0,41.0,-100.00,SSW,202,4.0,14.0,52,0.00,,,0.00,0.000000,,2013-10-09 08:42:00,
2013-10-09 04:53:00,59.0,41.0,-100.00,SSW,202,4.0,14.0,52,0.00,,,0.00,0.000000,,2013-10-09 08:53:00,
2013-10-09 05:22:00,59.0,43.0,-100.00,SSW,207,6.0,12.0,55,0.00,,,0.00,0.000000,,2013-10-09 09:22:00,
2013-10-09 05:33:00,59.0,43.0,-100.00,SSW,207,6.0,12.0,55,0.00,,,0.00,0.000000,,2013-10-09 09:33:00,
2013-10-09 05:43:00,59.0,43.0,-100.00,SSW,207,6.0,12.0,55,0.00,,,0.00,0.000000,,2013-10-09 09:43:00,
2013-10-09 05:53:00,59.0,43.0,-100.00,SSW,207,6.0,12.0,55,0.00,,,0.00,0.000000,,2013-10-09 09:53:00,
2013-10-09 06:23:00,59.0,43.0,-100.00,SSW,208,6.0,13.0,56,0.00,,,0.00,0.000000,,2013-10-09 10:23:00,
2013-10-09 06:32:00,59.0,43.0,-100.00,SSW,208,6.0,13.0,56,0.00,,,0.00,0.000000,,2013-10-09 10:32:00,
2013-10-09 06:43:00,59.0,43.0,-100.00,SSW,208,6.0,13.0,56,0.00,,,0.00,0.000000,,2013-10-09 10:43:00,
2013-10-09 06:53:00,59.0,43.0,-100.00,SSW,208,6.0,13.0,56,0.00,,,0.00,0.000000,,2013-10-09 10:53:00,
2013-10-09 07:22:00,58.0,44.0,-100.00,SSW,206,6.0,14.0,59,0.00,,,0.00,0.000000,,2013-10-09 11:22:00,
2013-10-09 07:33:00,58.0,44.0,-100.00,SSW,206,6.0,14.0,59,0.00,,,0.00,0.000000,,2013-10-09 11:33:00,
2013-10-09 07:42:00,58.0,44.0,-100.00,SSW,206,6.0,14.0,59,0.00,,,0.00,0.000000,,2013-10-09 11:42:00,
2013-10-09 07:52:00,58.0,44.0,-100.00,SSW,206,6.0,14.0,59,0.00,,,0.00,0.000000,,2013-10-09 11:52:00,
2013-10-09 08:22:00,57.0,43.0,-100.00,SW,214,5.0,15.0,60,0.00,,,-99.99,0.000000,,2013-10-09 12:22:00,
2013-10-09 08:32:00,57.0,43.0,-100.00,SW,214,5.0,15.0,60,0.00,,,-99.99,0.000000,,2013-10-09 12:32:00,
2013-10-09 08:42:00,57.0,43.0,-100.00,SW,214,5.0,15.0,60,0.00,,,-99.99,0.000000,,2013-10-09 12:42:00,
2013-10-09 08:52:00,57.0,43.0,-100.00,SW,214,5.0,15.0,60,0.00,,,-99.99,0.000000,,2013-10-09 12:52:00,
2013-10-09 09:22:00,58.0,46.0,-100.00,SSW,203,6.0,12.0,65,0.00,,,0.00,15.000000,,2013-10-09 13:22:00,
2013-10-09 09:33:00,58.0,46.0,-100.00,SSW,203,6.0,12.0,65,0.00,,,0.00,15.000000,,2013-10-09 13:33:00,
2013-10-09 09:42:00,58.0,46.0,-100.00,SSW,203,6.0,12.0,65,0.00,,,0.00,15.000000,,2013-10-09 13:42:00,
2013-10-09 09:52:00,58.0,46.0,-100.00,SSW,203,6.0,12.0,65,0.00,,,0.00,15.000000,,2013-10-09 13:52:00,
2013-10-09 10:22:00,62.0,47.0,-100.00,SSW,198,6.0,16.0,58,0.00,,,0.00,168.000000,,2013-10-09 14:22:00,
2013-10-09 10:32:00,62.0,47.0,-100.00,SSW,198,6.0,16.0,58,0.00,,,0.00,168.000000,,2013-10-09 14:32:00,
2013-10-09 10:42:00,62.0,47.0,-100.00,SSW,198,6.0,16.0,58,0.00,,,0.00,168.000000,,2013-10-09 14:42:00,
2013-10-09 10:52:00,62.0,47.0,-100.00,SSW,198,6.0,16.0,58,0.00,,,0.00,168.000000,,2013-10-09 14:52:00,
2013-10-09 11:22:00,67.0,48.0,-100.00,SSW,209,7.0,12.0,51,0.00,,,0.00,357.000000,,2013-10-09 15:22:00,
2013-10-09 11:33:00,67.0,48.0,-100.00,SSW,209,7.0,12.0,51,0.00,,,0.00,357.000000,,2013-10-09 15:33:00,
2013-10-09 11:43:00,67.0,48.0,-100.00,SSW,209,7.0,12.0,51,0.00,,,0.00,357.000000,,2013-10-09 15:43:00,
2013-10-09 11:53:00,67.0,48.0,-100.00,SSW,209,7.0,12.0,51,0.00,,,0.00,357.000000,,2013-10-09 15:53:00,
2013-10-09 12:24:00,70.0,49.0,-100.00,SSW,199,6.0,15.0,47,0.00,,,0.00,521.000000,,2013-10-09 16:24:00,
2013-10-09 12:32:00,70.0,49.0,-100.00,SSW,199,6.0,15.0,47,0.00,,,0.00,521.000000,,2013-10-09 16:32:00,
2013-10-09 12:42:00,70.0,49.0,-100.00,SSW,199,6.0,15.0,47,0.00,,,0.00,521.000000,,2013-10-09 16:42:00,
2013-10-09 12:52:00,70.0,49.0,-100.00,SSW,199,6.0,15.0,47,0.00,,,0.00,521.000000,,2013-10-09 16:52:00,
2013-10-09 13:22:00,69.0,47.0,-100.00,SSW,201,6.0,16.0,46,0.00,,,0.00,474.000000,,2013-10-09 17:22:00,
2013-10-09 13:33:00,69.0,47.0,-100.00,SSW,201,6.0,16.0,46,0.00,,,0.00,474.000000,,2013-10-09 17:33:00,
2013-10-09 13:42:00,69.0,47.0,-100.00,SSW,201,6.0,16.0,46,0.00,,,0.00,474.000000,,2013-10-09 17:42:00,
2013-10-09 13:52:00,69.0,47.0,-100.00,SSW,201,6.0,16.0,46,0.00,,,0.00,474.000000,,2013-10-09 17:52:00,
2013-10-09 14:22:00,73.0,45.0,-100.00,SW,229,7.0,16.0,37,0.00,,,0.00,556.000000,,2013-10-09 18:22:00,
2013-10-09 14:32:00,73.0,45.0,-100.00,SW,229,7.0,16.0,37,0.00,,,0.00,556.000000,,2013-10-09 18:32:00,
2013-10-09 14:42:00,73.0,45.0,-100.00,SW,229,7.0,16.0,37,0.00,,,0.00,556.000000,,2013-10-09 18:42:00,
2013-10-09 14:52:00,73.0,45.0,-100.00,SW,229,7.0,16.0,37,0.00,,,0.00,556.000000,,2013-10-09 18:52:00,
2013-10-09 15:22:00,73.0,44.0,-100.00,SW,215,6.0,15.0,36,0.00,,,0.00,450.000000,,2013-10-09 19:22:00,
2013-10-09 15:32:00,73.0,44.0,-100.00,SW,215,6.0,15.0,36,0.00,,,0.00,450.000000,,2013-10-09 19:32:00,
2013-10-09 15:42:00,73.0,44.0,-100.00,SW,215,6.0,15.0,36,0.00,,,0.00,450.000000,,2013-10-09 19:42:00,
2013-10-09 15:52:00,73.0,44.0,-100.00,SW,215,6.0,15.0,36,0.00,,,0.00,450.000000,,2013-10-09 19:52:00,
2013-10-09 16:22:00,71.0,45.0,-100.00,SSW,197,7.0,14.0,39,0.00,,,0.00,432.000000,,2013-10-09 20:22:00,
2013-10-09 16:32:00,71.0,45.0,-100.00,SSW,197,7.0,14.0,39,0.00,,,0.00,432.000000,,2013-10-09 20:32:00,
2013-10-09 16:43:00,71.0,45.0,-100.00,SSW,197,7.0,14.0,39,0.00,,,0.00,432.000000,,2013-10-09 20:43:00,
2013-10-09 16:52:00,71.0,45.0,-100.00,SSW,197,7.0,14.0,39,0.00,,,0.00,432.000000,,2013-10-09 20:52:00,
2013-10-09 17:22:00,73.0,44.0,-100.00,SW,214,8.0,15.0,36,0.00,,,0.00,432.000000,,2013-10-09 21:22:00,
2013-10-09 17:34:00,73.0,44.0,-100.00,SW,214,8.0,15.0,36,0.00,,,0.00,432.000000,,2013-10-09 21:34:00,
2013-10-09 17:44:00,73.0,44.0,-100.00,SW,214,8.0,15.0,36,0.00,,,0.00,432.000000,,2013-10-09 21:44:00,
2013-10-09 17:53:00,73.0,44.0,-100.00,SW,214,8.0,15.0,36,0.00,,,0.00,432.000000,,2013-10-09 21:53:00,
2013-10-09 18:24:00,71.0,44.0,-100.00,SSW,198,6.0,13.0,38,0.00,,,0.00,212.000000,,2013-10-09 22:24:00,
2013-10-09 18:34:00,71.0,44.0,-100.00,SSW,198,6.0,13.0,38,0.00,,,0.00,212.000000,,2013-10-09 22:34:00,
2013-10-09 18:43:00,71.0,44.0,-100.00,SSW,198,6.0,13.0,38,0.00,,,0.00,212.000000,,2013-10-09 22:43:00,
2013-10-09 18:53:00,71.0,44.0,-100.00,SSW,198,6.0,13.0,38,0.00,,,0.00,212.000000,,2013-10-09 22:53:00,
2013-10-09 19:22:00,68.0,46.0,-100.00,South,189,5.0,13.0,45,0.00,,,0.00,37.000000,,2013-10-09 23:22:00,
2013-10-09 19:34:00,68.0,46.0,-100.00,South,189,5.0,13.0,45,0.00,,,0.00,37.000000,,2013-10-09 23:34:00,
2013-10-09 19:43:00,68.0,46.0,-100.00,South,189,5.0,13.0,45,0.00,,,0.00,37.000000,,2013-10-09 23:43:00,
2013-10-09 19:53:00,68.0,46.0,-100.00,South,189,5.0,13.0,45,0.00,,,0.00,37.000000,,2013-10-09 23:53:00,
2013-10-09 20:22:00,63.0,47.0,-100.00,South,184,4.0,9.0,56,0.00,,,0.00,4.000000,,2013-10-10 00:22:00,
2013-10-09 20:32:00,63.0,47.0,-100.00,South,184,4.0,9.0,56,0.00,,,0.00,4.000000,,2013-10-10 00:32:00,
2013-10-09 20:42:00,63.0,47.0,-100.00,South,184,4.0,9.0,56,0.00,,,0.00,4.000000,,2013-10-10 00:42:00,
2013-10-09 20:52:00,63.0,47.0,-100.00,South,184,4.0,9.0,56,0.00,,,0.00,4.000000,,2013-10-10 00:52:00,
2013-10-09 21:21:00,59.0,46.0,-100.00,SSE,167,3.0,8.0,61,0.00,,,0.00,0.000000,,2013-10-10 01:21:00,
2013-10-09 21:32:00,59.0,46.0,-100.00,SSE,167,3.0,8.0,61,0.00,,,0.00,0.000000,,2013-10-10 01:32:00,
2013-10-09 21:42:00,59.0,46.0,-100.00,SSE,167,3.0,8.0,61,0.00,,,0.00,0.000000,,2013-10-10 01:42:00,
2013-10-09 21:52:00,59.0,46.0,-100.00,SSE,167,3.0,8.0,61,0.00,,,0.00,0.000000,,2013-10-10 01:52:00,
2013-10-09 22:22:00,56.0,44.0,-100.00,South,184,3.0,8.0,65,0.00,,,0.00,0.000000,,2013-10-10 02:22:00,
2013-10-09 22:33:00,56.0,44.0,-100.00,South,184,3.0,8.0,65,0.00,,,0.00,0.000000,,2013-10-10 02:33:00,
2013-10-09 22:42:00,56.0,44.0,-100.00,South,184,3.0,8.0,65,0.00,,,0.00,0.000000,,2013-10-10 02:42:00,
2013-10-09 22:52:00,56.0,44.0,-100.00,South,184,3.0,8.0,65,0.00,,,0.00,0.000000,,2013-10-10 02:52:00,
2013-10-09 23:44:00,51.0,45.0,-100.00,SSW,195,0.0,5.0,79,0.00,,,0.00,0.000000,,2013-10-10 03:44:00,
2013-10-09 23:54:00,51.0,45.0,-100.00,SSW,195,0.0,5.0,79,0.00,,,0.00,0.000000,,2013-10-10 03:54:00,